createdAt,value
2019-02-16T00:00:20.342Z,13.53
2019-02-16T00:04:24.680Z,12.17
2019-02-16T00:08:27.469Z,14.47
2019-02-16T00:12:30.244Z,14.97
2019-02-16T00:16:33.122Z,12.97
2019-02-16T00:20:35.843Z,11.37
2019-02-16T00:24:39.045Z,9.97
2019-02-16T00:28:41.653Z,11.23
2019-02-16T00:32:44.355Z,10.97
2019-02-16T00:36:47.241Z,11.60
2019-02-16T00:40:50.017Z,9.77
2019-02-16T00:44:52.402Z,8.93
2019-02-16T00:48:55.280Z,11.53
2019-02-16T00:52:57.652Z,9.87
2019-02-16T00:57:00.101Z,12.20
2019-02-16T01:01:02.975Z,13.83
2019-02-16T01:05:06.211Z,11.33
2019-02-16T01:09:08.674Z,11.37
2019-02-16T01:13:11.211Z,9.77
2019-02-16T01:17:13.563Z,11.70
2019-02-16T01:21:22.558Z,12.77
2019-02-16T01:25:20.086Z,10.10
2019-02-16T01:29:22.578Z,14.07
2019-02-16T01:33:24.936Z,11.33
2019-02-16T01:37:27.590Z,13.80
2019-02-16T01:41:30.287Z,14.10
2019-02-16T01:45:33.164Z,12.47
2019-02-16T01:49:35.982Z,9.77
2019-02-16T01:53:38.830Z,7.73
2019-02-16T01:57:41.286Z,8.90
2019-02-16T02:01:44.049Z,8.47
2019-02-16T02:05:46.424Z,7.73
2019-02-16T02:09:49.210Z,10.80
2019-02-16T02:13:51.809Z,8.53
2019-02-16T02:17:54.495Z,8.97
2019-02-16T02:21:56.852Z,7.77
2019-02-16T02:25:59.582Z,7.17
2019-02-16T02:30:02.296Z,5.90
2019-02-16T02:34:04.816Z,5.97
2019-02-16T02:38:07.194Z,7.87
2019-02-16T02:42:09.822Z,6.20
2019-02-16T02:46:12.561Z,6.33
2019-02-16T02:50:15.659Z,6.17
2019-02-16T02:54:18.119Z,5.47
2019-02-16T02:58:20.567Z,6.00
2019-02-16T03:02:22.932Z,6.90
2019-02-16T03:06:25.658Z,7.37
2019-02-16T03:10:28.009Z,5.53
2019-02-16T03:14:30.509Z,6.37
2019-02-16T03:18:32.914Z,6.40
2019-02-16T03:23:31.215Z,7.73
2019-02-16T03:28:26.337Z,7.30
2019-02-16T03:33:16.100Z,6.50
2019-02-16T03:37:55.994Z,7.20
2019-02-16T03:41:58.942Z,7.27
2019-02-16T03:46:01.713Z,5.50
2019-02-16T03:50:06.166Z,6.67
2019-02-16T03:54:09.137Z,7.67
2019-02-16T03:58:12.907Z,6.83
2019-02-16T04:02:15.543Z,7.87
2019-02-16T04:06:18.221Z,6.97
2019-02-16T04:10:20.709Z,6.83
2019-02-16T04:14:23.510Z,7.27
2019-02-16T04:18:26.344Z,6.97
2019-02-16T04:22:29.181Z,6.73
2019-02-16T04:26:31.906Z,7.70
2019-02-16T04:30:34.758Z,7.50
2019-02-16T04:34:38.465Z,8.00
2019-02-16T04:38:41.199Z,7.63
2019-02-16T04:42:43.795Z,8.07
2019-02-16T04:46:46.465Z,7.17
2019-02-16T04:50:49.067Z,7.57
2019-02-16T04:54:52.600Z,8.13
2019-02-16T04:58:55.331Z,7.30
2019-02-16T05:02:58.000Z,7.53
2019-02-16T05:07:00.829Z,7.63
2019-02-16T05:11:03.464Z,7.67
2019-02-16T05:15:06.022Z,7.93
2019-02-16T05:19:08.732Z,7.83
2019-02-16T05:23:11.435Z,5.60
2019-02-16T05:27:14.202Z,6.47
2019-02-16T05:31:16.899Z,7.20
2019-02-16T05:35:19.622Z,13.23
2019-02-16T05:39:22.187Z,18.00
2019-02-16T05:43:24.847Z,17.83
2019-02-16T05:47:27.502Z,21.00
2019-02-16T05:51:30.954Z,23.57
2019-02-16T05:55:33.954Z,33.40
2019-02-16T05:59:36.770Z,17.77
2019-02-16T06:03:39.794Z,6.90
2019-02-16T06:07:42.824Z,6.27
2019-02-16T06:11:45.387Z,6.97
2019-02-16T06:15:48.352Z,8.13
2019-02-16T06:19:50.768Z,5.97
2019-02-16T06:23:53.380Z,5.77
2019-02-16T06:27:55.911Z,5.67
2019-02-16T06:31:58.578Z,5.00
2019-02-16T06:36:05.796Z,4.97
2019-02-16T06:40:08.560Z,8.47
2019-02-16T06:44:10.913Z,5.60
2019-02-16T06:48:13.341Z,5.10
2019-02-16T06:52:15.678Z,5.17
2019-02-16T06:56:27.541Z,5.20
2019-02-16T07:00:31.115Z,8.00
2019-02-16T07:04:33.531Z,5.07
2019-02-16T07:08:35.897Z,4.30
2019-02-16T07:12:38.387Z,5.83
2019-02-16T07:16:56.087Z,4.63
2019-02-16T07:20:58.531Z,5.27
2019-02-16T07:25:00.902Z,4.63
2019-02-16T07:29:03.346Z,4.67
2019-02-16T07:33:05.808Z,4.83
2019-02-16T07:37:08.447Z,5.27
2019-02-16T07:41:10.920Z,4.47
2019-02-16T07:45:27.375Z,5.27
2019-02-16T07:49:37.937Z,5.07
2019-02-16T07:53:59.101Z,5.37
2019-02-16T07:58:34.262Z,4.47
2019-02-16T08:03:01.865Z,4.57
2019-02-16T08:07:13.696Z,4.77
2019-02-16T08:11:25.773Z,2.97
2019-02-16T08:15:53.057Z,5.33
2019-02-16T08:20:13.038Z,5.20
2019-02-16T08:24:38.701Z,5.90
2019-02-16T08:29:06.081Z,6.23
2019-02-16T08:33:15.938Z,5.17
2019-02-16T08:37:34.401Z,4.23
2019-02-16T08:41:50.822Z,5.50
2019-02-16T08:46:12.866Z,5.20
2019-02-16T08:50:33.146Z,5.90
2019-02-16T08:55:00.332Z,5.40
2019-02-16T08:59:24.508Z,5.07
2019-02-16T09:03:59.602Z,5.10
2019-02-16T09:08:20.668Z,4.20
2019-02-16T09:12:51.363Z,5.17
2019-02-16T09:17:13.309Z,4.97
2019-02-16T09:21:23.006Z,4.47
2019-02-16T09:25:49.928Z,5.10
2019-02-16T09:30:14.779Z,4.17
2019-02-16T09:34:23.961Z,3.70
2019-02-16T09:38:54.502Z,4.00
2019-02-16T09:43:08.041Z,7.37
2019-02-16T09:47:19.203Z,6.47
2019-02-16T09:51:40.316Z,4.57
2019-02-16T09:56:00.456Z,3.67
2019-02-16T10:00:10.730Z,4.33
2019-02-16T10:04:31.992Z,4.27
2019-02-16T10:08:53.347Z,3.50
2019-02-16T10:13:14.730Z,4.17
2019-02-16T10:17:42.427Z,3.30
2019-02-16T10:22:16.135Z,4.10
2019-02-16T10:26:37.270Z,4.30
2019-02-16T10:30:47.971Z,3.80
2019-02-16T10:35:09.196Z,4.10
2019-02-16T10:39:19.790Z,2.80
2019-02-16T10:43:40.890Z,4.83
2019-02-16T10:48:14.141Z,4.13
2019-02-16T10:52:33.616Z,3.07
2019-02-16T10:57:04.196Z,3.60
2019-02-16T11:01:25.469Z,3.00
2019-02-16T11:05:53.061Z,3.43
2019-02-16T11:10:19.345Z,4.20
2019-02-16T11:14:46.416Z,4.20
2019-02-16T11:18:55.919Z,3.23
2019-02-16T11:23:17.020Z,3.67
2019-02-16T11:27:44.632Z,3.57
2019-02-16T11:32:08.889Z,3.83
2019-02-16T11:36:35.300Z,4.00
2019-02-16T11:40:59.103Z,4.00
2019-02-16T11:45:20.166Z,4.10
2019-02-16T11:49:33.272Z,3.47
2019-02-16T11:53:52.990Z,3.40
2019-02-16T11:58:16.222Z,3.53
2019-02-16T12:02:52.964Z,3.80
2019-02-16T12:07:14.247Z,4.10
2019-02-16T12:11:53.939Z,3.67
2019-02-16T12:16:15.100Z,2.90
2019-02-16T12:20:39.000Z,2.87
2019-02-16T12:25:04.867Z,3.67
2019-02-16T12:29:30.523Z,3.67
2019-02-16T12:33:58.021Z,3.57
2019-02-16T12:38:10.012Z,3.77
2019-02-16T12:42:43.425Z,3.33
2019-02-16T12:47:16.830Z,3.53
2019-02-16T12:51:40.752Z,3.57
2019-02-16T12:55:59.192Z,3.00
2019-02-16T13:00:14.631Z,3.97
2019-02-16T13:04:38.746Z,3.63
2019-02-16T13:08:48.765Z,4.03
2019-02-16T13:12:58.009Z,3.03
2019-02-16T13:17:18.138Z,3.90
2019-02-16T13:21:57.660Z,3.63
2019-02-16T13:26:16.820Z,2.80
2019-02-16T13:30:36.766Z,3.80
2019-02-16T13:34:52.166Z,3.40
2019-02-16T13:39:13.258Z,3.60
2019-02-16T13:43:33.690Z,2.93
2019-02-16T13:47:54.804Z,4.27
2019-02-16T13:52:14.672Z,2.90
2019-02-16T13:56:28.064Z,3.17
2019-02-16T14:00:58.295Z,3.30
2019-02-16T14:05:22.474Z,3.40
2019-02-16T14:09:42.360Z,3.77
2019-02-16T14:13:56.064Z,3.67
2019-02-16T14:17:58.496Z,3.93
2019-02-16T14:22:00.824Z,3.50
2019-02-16T14:26:03.433Z,4.00
2019-02-16T14:30:06.453Z,3.30
2019-02-16T14:34:09.489Z,4.27
2019-02-16T14:38:35.398Z,3.77
2019-02-16T14:42:37.884Z,4.13
2019-02-16T14:46:40.220Z,3.90
2019-02-16T14:50:42.674Z,3.83
2019-02-16T14:54:45.128Z,4.00
2019-02-16T14:58:47.538Z,4.53
2019-02-16T15:02:49.880Z,4.00
2019-02-16T15:06:52.338Z,4.20
2019-02-16T15:10:54.739Z,3.27
2019-02-16T15:14:57.187Z,3.97
2019-02-16T15:18:59.776Z,4.50
2019-02-16T15:23:02.411Z,4.37
2019-02-16T15:27:04.849Z,4.00
2019-02-16T15:31:07.364Z,4.90
2019-02-16T15:35:10.697Z,6.17
2019-02-16T15:39:13.155Z,4.27
2019-02-16T15:43:15.590Z,4.60
2019-02-16T15:47:18.408Z,6.80
2019-02-16T15:51:20.770Z,4.47
2019-02-16T15:55:23.163Z,4.60
2019-02-16T15:59:25.502Z,4.23
2019-02-16T16:03:29.064Z,3.47
2019-02-16T16:07:31.797Z,3.90
2019-02-16T16:11:45.239Z,4.83
2019-02-16T16:16:01.323Z,4.33
2019-02-16T16:20:25.396Z,4.10
2019-02-16T16:24:39.684Z,4.73
2019-02-16T16:29:00.794Z,4.40
2019-02-16T16:33:31.425Z,5.00
2019-02-16T16:37:59.204Z,4.40
2019-02-16T16:42:19.154Z,3.93
2019-02-16T16:46:39.292Z,5.57
2019-02-16T16:50:50.015Z,5.80
2019-02-16T16:55:14.458Z,5.17
2019-02-16T16:59:35.536Z,4.90
2019-02-16T17:04:12.544Z,4.80
2019-02-16T17:08:29.153Z,5.17
2019-02-16T17:12:49.232Z,5.00
2019-02-16T17:17:12.711Z,4.20
2019-02-16T17:21:35.870Z,4.77
2019-02-16T17:26:16.346Z,4.90
2019-02-16T17:30:31.745Z,4.70
2019-02-16T17:34:52.814Z,4.93
2019-02-16T17:39:12.879Z,4.97
2019-02-16T17:43:33.649Z,5.00
2019-02-16T17:48:07.895Z,5.40
2019-02-16T17:52:27.528Z,5.57
2019-02-16T17:56:46.796Z,3.80
2019-02-16T18:01:08.756Z,4.77
2019-02-16T18:05:34.587Z,5.27
2019-02-16T18:09:58.794Z,5.50
2019-02-16T18:14:16.968Z,5.17
2019-02-16T18:18:51.739Z,5.73
2019-02-16T18:23:09.799Z,5.00
2019-02-16T18:27:36.912Z,5.73
2019-02-16T18:32:13.712Z,5.63
2019-02-16T18:36:28.704Z,6.07
2019-02-16T18:40:42.611Z,4.90
2019-02-16T18:45:06.500Z,5.40
2019-02-16T18:49:24.414Z,6.17
2019-02-16T18:53:58.325Z,5.33
2019-02-16T18:58:12.048Z,6.43
2019-02-16T19:02:32.299Z,6.00
2019-02-16T19:06:45.214Z,4.60
2019-02-16T19:11:09.465Z,6.33
2019-02-16T19:15:48.940Z,5.97
2019-02-16T19:20:16.611Z,6.00
2019-02-16T19:24:27.953Z,5.50
2019-02-16T19:28:50.883Z,6.20
2019-02-16T19:33:05.069Z,5.50
2019-02-16T19:37:23.143Z,5.93
2019-02-16T19:41:43.556Z,5.80
2019-02-16T19:46:20.465Z,5.90
2019-02-16T19:50:30.683Z,5.77
2019-02-16T19:54:44.213Z,6.50
2019-02-16T19:59:08.712Z,5.73
2019-02-16T20:03:32.979Z,4.40
2019-02-16T20:07:52.962Z,5.83
2019-02-16T20:12:05.274Z,5.00
2019-02-16T20:16:45.538Z,6.43
2019-02-16T20:21:07.270Z,5.47
2019-02-16T20:25:27.875Z,4.70
2019-02-16T20:29:48.032Z,4.60
2019-02-16T20:34:15.686Z,4.70
2019-02-16T20:38:36.764Z,4.57
2019-02-16T20:42:57.924Z,5.13
2019-02-16T20:47:09.407Z,5.07
2019-02-16T20:51:18.541Z,4.63
2019-02-16T20:55:55.071Z,3.90
2019-02-16T21:00:22.673Z,3.80
2019-02-16T21:04:42.952Z,3.50
2019-02-16T21:09:16.239Z,4.40
2019-02-16T21:13:33.170Z,3.70
2019-02-16T21:17:57.575Z,3.67
2019-02-16T21:22:21.534Z,4.00
2019-02-16T21:26:46.578Z,3.63
2019-02-16T21:30:58.844Z,3.60
2019-02-16T21:35:09.822Z,3.37
2019-02-16T21:39:20.217Z,3.83
2019-02-16T21:43:41.640Z,3.03
2019-02-16T21:48:05.788Z,2.67
2019-02-16T21:52:27.047Z,3.00
2019-02-16T21:56:48.778Z,2.60
2019-02-16T22:01:16.275Z,2.40
2019-02-16T22:05:36.600Z,2.30
2019-02-16T22:09:58.199Z,1.67
2019-02-16T22:14:00.541Z,2.00
2019-02-16T22:18:02.984Z,2.03
2019-02-16T22:22:05.314Z,1.67
2019-02-16T22:26:07.750Z,2.30
2019-02-16T22:30:11.767Z,1.77
2019-02-16T22:34:14.170Z,2.10
2019-02-16T22:38:16.481Z,1.40
2019-02-16T22:42:19.128Z,1.50
2019-02-16T22:46:21.461Z,1.50
2019-02-16T22:50:23.897Z,1.53
2019-02-16T22:54:27.542Z,0.80
2019-02-16T22:58:29.928Z,0.90
2019-02-16T23:02:32.241Z,0.70
2019-02-16T23:06:34.650Z,1.00
2019-02-16T23:10:37.088Z,0.90
2019-02-16T23:14:39.447Z,0.83
2019-02-16T23:18:41.812Z,1.00
2019-02-16T23:22:44.241Z,0.67
2019-02-16T23:26:46.598Z,0.83
2019-02-16T23:30:50.573Z,0.70
2019-02-16T23:34:52.956Z,0.57
2019-02-16T23:38:55.556Z,0.60
2019-02-16T23:42:57.861Z,0.77
2019-02-16T23:47:00.307Z,0.80
2019-02-16T23:51:02.850Z,0.93
2019-02-16T23:55:05.728Z,0.70
2019-02-16T23:59:08.065Z,0.50
